createdAt,value
2023-03-29T00:01:43.151Z,10.87
2023-03-29T00:04:10.883Z,7.77
2023-03-29T00:06:38.903Z,9.20
2023-03-29T00:09:07.201Z,12.43
2023-03-29T00:11:34.505Z,12.00
2023-03-29T00:14:02.810Z,15.10
2023-03-29T00:16:30.136Z,15.33
2023-03-29T00:18:57.521Z,13.17
2023-03-29T00:21:24.947Z,10.87
2023-03-29T00:23:52.387Z,16.47
2023-03-29T00:26:21.074Z,14.53
2023-03-29T00:28:48.487Z,15.80
2023-03-29T00:31:17.048Z,11.37
2023-03-29T00:33:44.716Z,15.67
2023-03-29T00:36:13.172Z,9.67
2023-03-29T00:38:40.843Z,14.53
2023-03-29T00:41:09.120Z,11.13
2023-03-29T00:43:56.714Z,11.77
2023-03-29T00:46:24.571Z,10.23
2023-03-29T00:48:53.431Z,9.40
2023-03-29T00:51:22.389Z,11.73
2023-03-29T00:53:51.669Z,9.50
2023-03-29T00:56:23.152Z,10.47
2023-03-29T00:58:55.480Z,12.43
2023-03-29T01:01:31.063Z,10.80
2023-03-29T01:04:24.027Z,12.97
2023-03-29T01:06:56.646Z,10.10
2023-03-29T01:09:27.992Z,9.93
2023-03-29T01:11:56.865Z,12.30
2023-03-29T01:14:34.688Z,7.03
2023-03-29T01:17:02.156Z,13.13
2023-03-29T01:19:32.540Z,11.07
2023-03-29T01:22:15.469Z,11.00
2023-03-29T01:25:01.771Z,9.63
2023-03-29T01:27:32.740Z,8.00
2023-03-29T01:30:06.531Z,13.73
2023-03-29T01:32:35.861Z,9.83
2023-03-29T01:35:10.798Z,10.27
2023-03-29T01:37:41.998Z,8.93
2023-03-29T01:40:09.721Z,11.88
2023-03-29T01:42:47.781Z,12.67
2023-03-29T01:45:15.220Z,14.43
2023-03-29T01:47:55.965Z,11.17
2023-03-29T01:50:45.246Z,18.60
2023-03-29T01:53:21.844Z,12.70
2023-03-29T01:56:02.496Z,15.03
2023-03-29T01:58:34.275Z,17.47
2023-03-29T02:03:31.462Z,12.20
2023-03-29T02:06:00.045Z,14.77
2023-03-29T02:08:28.074Z,19.20
2023-03-29T02:10:55.695Z,12.40
2023-03-29T02:13:23.189Z,18.30
2023-03-29T02:15:50.772Z,13.07
2023-03-29T02:18:19.291Z,15.40
2023-03-29T02:20:50.327Z,15.80
2023-03-29T02:23:21.933Z,12.27
2023-03-29T02:25:51.498Z,13.10
2023-03-29T02:28:19.307Z,16.40
2023-03-29T02:30:58.811Z,15.13
2023-03-29T02:33:46.415Z,11.47
2023-03-29T02:36:19.473Z,10.50
2023-03-29T02:38:46.952Z,16.07
2023-03-29T02:41:14.600Z,12.30
2023-03-29T02:43:42.858Z,14.50
2023-03-29T02:46:11.797Z,10.27
2023-03-29T02:48:39.474Z,12.23
2023-03-29T02:51:10.315Z,12.57
2023-03-29T02:53:43.289Z,14.13
2023-03-29T02:56:10.544Z,12.33
2023-03-29T02:58:38.105Z,15.80
2023-03-29T03:01:07.486Z,11.23
2023-03-29T03:03:36.402Z,13.00
2023-03-29T03:06:03.694Z,17.20
2023-03-29T03:08:34.163Z,12.93
2023-03-29T03:11:02.011Z,14.77
2023-03-29T03:13:29.875Z,10.07
2023-03-29T03:15:57.268Z,11.67
2023-03-29T03:18:24.715Z,11.50
2023-03-29T03:20:56.021Z,12.00
2023-03-29T03:23:23.357Z,11.88
2023-03-29T03:25:50.567Z,15.87
2023-03-29T03:28:18.132Z,15.13
2023-03-29T03:30:45.696Z,15.73
2023-03-29T03:33:13.468Z,14.70
2023-03-29T03:35:40.832Z,16.93
2023-03-29T03:38:09.251Z,17.10
2023-03-29T03:40:36.620Z,16.17
2023-03-29T03:43:03.978Z,14.13
2023-03-29T03:45:34.952Z,13.67
2023-03-29T03:48:02.713Z,11.30
2023-03-29T03:50:30.148Z,15.17
2023-03-29T03:52:57.601Z,16.43
2023-03-29T03:55:24.722Z,12.93
2023-03-29T03:57:52.937Z,22.17
2023-03-29T04:00:20.289Z,78.57
2023-03-29T04:02:48.801Z,17.43
2023-03-29T04:05:17.606Z,15.23
2023-03-29T04:07:45.287Z,17.27
2023-03-29T04:10:12.821Z,13.50
2023-03-29T04:12:40.540Z,12.60
2023-03-29T04:15:08.885Z,15.37
2023-03-29T04:17:36.375Z,13.40
2023-03-29T04:20:12.772Z,21.17
2023-03-29T04:22:40.838Z,14.83
2023-03-29T04:25:08.906Z,15.97
2023-03-29T04:27:37.502Z,13.27
2023-03-29T04:30:05.155Z,15.17
2023-03-29T04:32:32.544Z,16.97
2023-03-29T04:35:00.124Z,13.37
2023-03-29T04:37:28.529Z,12.87
2023-03-29T04:39:56.721Z,19.17
2023-03-29T04:42:24.575Z,19.87
2023-03-29T04:44:52.349Z,17.87
2023-03-29T04:47:20.348Z,17.40
2023-03-29T04:49:47.965Z,19.23
2023-03-29T04:52:15.281Z,24.53
2023-03-29T04:54:42.663Z,19.80
2023-03-29T04:57:10.136Z,23.40
2023-03-29T04:59:37.701Z,16.00
2023-03-29T05:02:05.720Z,23.20
2023-03-29T05:04:33.696Z,19.63
2023-03-29T05:07:03.435Z,17.43
2023-03-29T05:09:34.291Z,20.43
2023-03-29T05:14:29.639Z,14.83
2023-03-29T05:16:57.395Z,16.80
2023-03-29T05:19:25.011Z,20.07
2023-03-29T05:21:53.864Z,23.20
2023-03-29T05:24:22.283Z,20.77
2023-03-29T05:26:52.290Z,22.07
2023-03-29T05:29:19.907Z,20.70
2023-03-29T05:31:47.750Z,22.83
2023-03-29T05:34:15.868Z,25.53
2023-03-29T05:36:43.615Z,16.43
2023-03-29T05:39:11.832Z,21.63
2023-03-29T05:41:39.511Z,22.57
2023-03-29T05:44:07.741Z,21.67
2023-03-29T05:46:36.080Z,17.80
2023-03-29T05:49:03.945Z,24.77
2023-03-29T05:51:31.592Z,22.40
2023-03-29T05:54:02.437Z,23.27
2023-03-29T05:56:29.907Z,27.73
2023-03-29T05:58:57.855Z,17.97
2023-03-29T06:01:25.509Z,23.40
2023-03-29T06:03:55.815Z,20.70
2023-03-29T06:06:23.238Z,22.07
2023-03-29T06:08:51.323Z,20.00
2023-03-29T06:11:18.745Z,22.52
2023-03-29T06:13:46.889Z,17.45
2023-03-29T06:16:15.061Z,17.63
2023-03-29T06:18:43.257Z,16.27
2023-03-29T06:21:11.449Z,19.83
2023-03-29T06:23:39.386Z,19.65
2023-03-29T06:26:07.718Z,15.00
2023-03-29T06:28:35.008Z,48.95
2023-03-29T06:31:04.232Z,18.25
2023-03-29T06:33:32.981Z,15.27
2023-03-29T06:36:00.714Z,15.27
2023-03-29T06:38:29.160Z,19.17
2023-03-29T06:41:04.740Z,18.85
2023-03-29T06:43:33.610Z,18.23
2023-03-29T06:46:02.842Z,16.73
2023-03-29T06:48:31.098Z,16.38
2023-03-29T06:50:58.717Z,11.98
2023-03-29T06:53:26.949Z,13.07
2023-03-29T06:55:55.064Z,10.55
2023-03-29T06:58:23.439Z,11.55
2023-03-29T07:00:51.749Z,10.68
2023-03-29T07:03:24.655Z,7.43
2023-03-29T07:05:54.693Z,11.65
2023-03-29T07:08:23.110Z,9.10
2023-03-29T07:10:56.302Z,13.18
2023-03-29T07:13:24.339Z,144.90
2023-03-29T07:15:52.833Z,8.82
2023-03-29T07:18:20.135Z,10.00
2023-03-29T07:20:48.649Z,6.55
2023-03-29T07:23:19.002Z,6.03
2023-03-29T07:25:47.694Z,6.25
2023-03-29T07:28:15.532Z,8.63
2023-03-29T07:30:43.320Z,6.65
2023-03-29T07:33:11.112Z,5.88
2023-03-29T07:35:39.566Z,4.80
2023-03-29T07:38:08.796Z,6.30
2023-03-29T07:40:36.490Z,4.28
2023-03-29T07:43:09.623Z,5.78
2023-03-29T07:45:37.925Z,7.13
2023-03-29T07:48:08.669Z,3.97
2023-03-29T07:50:36.533Z,6.20
2023-03-29T07:53:04.552Z,3.90
2023-03-29T07:55:31.959Z,3.75
2023-03-29T07:58:00.182Z,4.13
2023-03-29T08:00:28.443Z,4.93
2023-03-29T08:02:56.738Z,3.17
2023-03-29T08:05:37.882Z,3.97
2023-03-29T08:08:10.248Z,3.35
2023-03-29T08:10:42.911Z,5.55
2023-03-29T08:13:10.958Z,5.40
2023-03-29T08:15:40.131Z,15.68
2023-03-29T08:18:08.311Z,5.40
2023-03-29T08:20:36.562Z,8.70
2023-03-29T08:23:04.538Z,6.18
2023-03-29T08:25:31.893Z,4.88
2023-03-29T08:27:59.520Z,3.40
2023-03-29T08:30:27.764Z,3.85
2023-03-29T08:32:55.639Z,4.95
2023-03-29T08:35:23.387Z,17.58
2023-03-29T08:37:51.457Z,4.60
2023-03-29T08:40:30.548Z,5.05
2023-03-29T08:42:58.583Z,8.88
2023-03-29T08:45:44.063Z,5.05
2023-03-29T08:48:25.772Z,2.95
2023-03-29T08:50:59.651Z,4.07
2023-03-29T08:53:38.529Z,3.83
2023-03-29T08:56:09.552Z,4.05
2023-03-29T08:58:39.035Z,3.30
2023-03-29T09:01:09.834Z,4.45
2023-03-29T09:03:49.103Z,3.80
2023-03-29T09:06:17.301Z,3.83
2023-03-29T09:08:46.470Z,3.45
2023-03-29T09:11:30.000Z,5.25
2023-03-29T09:14:15.642Z,3.15
2023-03-29T09:17:01.960Z,4.60
2023-03-29T09:19:55.048Z,5.55
2023-03-29T09:22:34.610Z,5.22
2023-03-29T09:25:11.115Z,3.67
2023-03-29T09:27:58.789Z,4.10
2023-03-29T09:30:29.470Z,2.17
2023-03-29T09:32:57.406Z,2.20
2023-03-29T09:35:28.994Z,2.42
2023-03-29T09:37:57.816Z,4.72
2023-03-29T09:40:29.040Z,6.05
2023-03-29T09:42:57.062Z,2.78
2023-03-29T09:45:24.743Z,3.50
2023-03-29T09:48:08.588Z,6.28
2023-03-29T09:50:38.289Z,3.78
2023-03-29T09:53:06.280Z,3.63
2023-03-29T09:55:34.740Z,5.38
2023-03-29T09:58:03.414Z,9.65
2023-03-29T10:00:30.840Z,6.18
2023-03-29T10:02:59.704Z,3.97
2023-03-29T10:05:30.482Z,4.03
2023-03-29T10:07:59.375Z,4.22
2023-03-29T10:10:34.052Z,4.50
2023-03-29T10:13:08.115Z,3.55
2023-03-29T10:15:35.542Z,3.88
2023-03-29T10:18:07.406Z,4.78
2023-03-29T10:20:40.839Z,4.85
2023-03-29T10:23:11.704Z,4.65
2023-03-29T10:25:43.163Z,5.07
2023-03-29T10:30:39.606Z,5.40
2023-03-29T10:33:08.555Z,4.32
2023-03-29T10:38:25.439Z,4.45
2023-03-29T10:40:54.049Z,2.97
2023-03-29T10:43:27.313Z,3.38
2023-03-29T10:45:56.250Z,5.35
2023-03-29T10:48:29.405Z,4.13
2023-03-29T10:50:59.717Z,8.85
2023-03-29T10:53:33.462Z,4.35
2023-03-29T10:56:15.446Z,3.42
2023-03-29T10:58:43.156Z,5.88
2023-03-29T11:01:18.068Z,3.35
2023-03-29T11:03:54.481Z,2.65
2023-03-29T11:06:30.893Z,4.45
2023-03-29T11:09:00.719Z,2.97
2023-03-29T11:11:33.793Z,3.38
2023-03-29T11:19:44.354Z,4.68
2023-03-29T11:22:20.405Z,3.35
2023-03-29T11:24:59.865Z,4.47
2023-03-29T11:27:45.229Z,3.47
2023-03-29T11:30:31.458Z,3.97
2023-03-29T11:33:09.718Z,2.35
2023-03-29T11:35:48.660Z,3.25
2023-03-29T11:38:24.839Z,3.25
2023-03-29T11:40:52.738Z,3.63
2023-03-29T11:43:24.246Z,4.75
2023-03-29T11:45:56.544Z,33.95
2023-03-29T11:48:29.106Z,2.15
2023-03-29T11:50:59.853Z,2.55
2023-03-29T11:53:40.070Z,23.97
2023-03-29T11:56:11.364Z,7.18
2023-03-29T11:58:42.068Z,3.10
2023-03-29T12:01:13.491Z,4.77
2023-03-29T12:03:46.230Z,5.93
2023-03-29T12:06:22.844Z,2.15
2023-03-29T12:09:16.919Z,3.75
2023-03-29T12:11:53.193Z,2.35
2023-03-29T12:14:36.053Z,2.45
2023-03-29T12:17:05.908Z,2.45
2023-03-29T12:19:42.649Z,3.53
2023-03-29T12:22:11.505Z,2.65
2023-03-29T12:24:41.638Z,4.15
2023-03-29T12:27:44.353Z,4.13
2023-03-29T12:30:31.163Z,3.08
2023-03-29T12:33:15.141Z,3.40
2023-03-29T12:36:06.863Z,3.92
2023-03-29T12:38:35.293Z,3.67
2023-03-29T12:41:09.385Z,4.07
2023-03-29T12:43:41.838Z,2.88
2023-03-29T12:46:10.710Z,4.53
2023-03-29T12:48:40.942Z,2.25
2023-03-29T12:51:26.715Z,2.58
2023-03-29T12:53:55.235Z,3.45
2023-03-29T12:56:24.375Z,3.72
2023-03-29T12:58:53.034Z,4.57
2023-03-29T13:01:25.861Z,14.07
2023-03-29T13:03:58.355Z,5.78
2023-03-29T13:06:53.744Z,3.63
2023-03-29T13:09:22.678Z,2.65
2023-03-29T13:11:54.702Z,6.45
2023-03-29T13:14:25.139Z,4.72
2023-03-29T13:16:52.670Z,4.32
2023-03-29T13:19:34.575Z,8.68
2023-03-29T13:22:20.217Z,2.42
2023-03-29T13:24:47.938Z,7.93
2023-03-29T13:27:30.599Z,3.65
2023-03-29T13:30:21.604Z,3.63
2023-03-29T13:32:53.636Z,2.53
2023-03-29T13:35:39.750Z,3.95
2023-03-29T13:38:32.447Z,3.13
2023-03-29T13:41:01.477Z,4.38
2023-03-29T13:43:31.514Z,4.78
2023-03-29T13:45:59.592Z,5.35
2023-03-29T13:48:29.297Z,5.40
2023-03-29T13:50:58.497Z,5.50
2023-03-29T13:53:41.706Z,6.35
2023-03-29T13:56:11.774Z,3.88
2023-03-29T13:58:39.005Z,3.53
2023-03-29T14:01:12.430Z,5.68
2023-03-29T14:03:46.082Z,5.97
2023-03-29T14:06:15.860Z,5.32
2023-03-29T14:08:44.625Z,2.63
2023-03-29T14:11:26.275Z,4.68
2023-03-29T14:13:57.645Z,4.85
2023-03-29T14:16:29.147Z,6.25
2023-03-29T14:21:23.783Z,5.43
2023-03-29T14:23:55.450Z,5.15
2023-03-29T14:28:51.168Z,4.57
2023-03-29T14:31:19.416Z,4.05
2023-03-29T14:33:47.120Z,3.13
2023-03-29T14:36:18.444Z,4.03
2023-03-29T14:38:54.484Z,3.15
2023-03-29T14:41:24.404Z,5.07
2023-03-29T14:43:52.097Z,6.55
2023-03-29T14:46:21.313Z,4.57
2023-03-29T14:48:49.780Z,3.88
2023-03-29T14:51:17.163Z,2.92
2023-03-29T14:53:51.009Z,4.95
2023-03-29T14:56:24.496Z,2.85
2023-03-29T14:58:57.149Z,6.18
2023-03-29T15:01:25.155Z,5.18
2023-03-29T15:03:57.053Z,3.67
2023-03-29T15:06:26.222Z,3.33
2023-03-29T15:09:04.142Z,5.32
2023-03-29T15:11:34.744Z,8.32
2023-03-29T15:14:03.029Z,14.40
2023-03-29T15:16:31.758Z,7.40
2023-03-29T15:19:00.515Z,7.13
2023-03-29T15:21:31.271Z,4.85
2023-03-29T15:23:59.273Z,4.47
2023-03-29T15:26:31.831Z,4.50
2023-03-29T15:29:03.610Z,5.80
2023-03-29T15:31:38.532Z,11.02
2023-03-29T15:34:13.796Z,8.95
2023-03-29T15:36:42.881Z,4.60
2023-03-29T15:39:14.070Z,7.35
2023-03-29T15:41:42.073Z,7.70
2023-03-29T15:44:09.815Z,8.50
2023-03-29T15:46:37.651Z,8.55
2023-03-29T15:49:06.530Z,9.50
2023-03-29T15:51:33.968Z,6.95
2023-03-29T15:54:01.772Z,7.53
2023-03-29T15:56:29.889Z,9.73
2023-03-29T15:58:56.878Z,11.57
2023-03-29T16:01:35.066Z,9.82
2023-03-29T16:04:03.392Z,9.27
2023-03-29T16:06:31.314Z,10.80
2023-03-29T16:08:59.394Z,8.13
2023-03-29T16:11:27.502Z,15.70
2023-03-29T16:13:55.496Z,14.68
2023-03-29T16:16:22.892Z,10.88
2023-03-29T16:18:51.044Z,18.33
2023-03-29T16:21:19.954Z,13.70
2023-03-29T16:23:59.308Z,9.63
2023-03-29T16:26:27.328Z,13.57
2023-03-29T16:28:54.776Z,13.05
2023-03-29T16:31:24.330Z,26.63
2023-03-29T16:33:52.100Z,42.38
2023-03-29T16:36:19.478Z,60.50
2023-03-29T16:38:46.914Z,41.00
2023-03-29T16:41:18.507Z,27.13
2023-03-29T16:43:46.153Z,11.80
2023-03-29T16:46:13.558Z,11.35
2023-03-29T16:48:41.539Z,14.35
2023-03-29T16:51:10.631Z,11.85
2023-03-29T16:53:38.343Z,11.15
2023-03-29T16:56:06.394Z,52.17
2023-03-29T16:58:33.908Z,126.70
2023-03-29T17:01:10.259Z,24.80
2023-03-29T17:03:41.129Z,12.68
2023-03-29T17:06:10.183Z,12.60
2023-03-29T17:08:38.222Z,16.13
2023-03-29T17:11:07.434Z,17.65
2023-03-29T17:13:34.978Z,20.17
2023-03-29T17:16:02.738Z,22.90
2023-03-29T17:18:30.653Z,31.25
2023-03-29T17:20:59.543Z,28.58
2023-03-29T17:23:32.543Z,38.58
2023-03-29T17:26:00.705Z,41.97
2023-03-29T17:28:28.534Z,38.65
2023-03-29T17:30:56.201Z,35.67
2023-03-29T17:33:26.677Z,50.15
2023-03-29T17:35:54.256Z,72.00
2023-03-29T17:38:21.747Z,99.70
2023-03-29T17:40:55.607Z,95.05
2023-03-29T17:43:23.269Z,88.43
2023-03-29T17:45:51.342Z,75.75
2023-03-29T17:48:19.574Z,57.78
2023-03-29T17:50:46.957Z,48.15
2023-03-29T17:53:14.320Z,56.97
2023-03-29T17:55:42.041Z,57.67
2023-03-29T17:58:12.894Z,49.95
2023-03-29T18:00:40.292Z,47.70
2023-03-29T18:03:07.727Z,52.90
2023-03-29T18:05:36.622Z,52.43
2023-03-29T18:08:04.117Z,47.72
2023-03-29T18:10:31.767Z,49.13
2023-03-29T18:12:59.043Z,41.27
2023-03-29T18:15:26.717Z,49.07
2023-03-29T18:17:54.294Z,43.17
2023-03-29T18:20:21.800Z,47.53
2023-03-29T18:22:49.452Z,49.88
2023-03-29T18:25:19.205Z,46.93
2023-03-29T18:27:51.122Z,47.73
2023-03-29T18:30:18.511Z,42.83
2023-03-29T18:32:49.717Z,55.17
2023-03-29T18:35:21.251Z,64.88
2023-03-29T18:37:49.283Z,56.30
2023-03-29T18:40:21.530Z,60.97
2023-03-29T18:42:49.474Z,54.47
2023-03-29T18:45:18.896Z,51.50
2023-03-29T18:47:48.102Z,48.40
2023-03-29T18:50:16.551Z,47.73
2023-03-29T18:52:44.479Z,50.67
2023-03-29T18:55:14.624Z,37.20
2023-03-29T18:57:42.111Z,42.87
2023-03-29T19:00:16.968Z,42.83
2023-03-29T19:02:48.122Z,31.13
2023-03-29T19:05:15.857Z,54.35
2023-03-29T19:07:43.376Z,41.23
2023-03-29T19:10:11.229Z,66.70
2023-03-29T19:12:38.493Z,40.40
2023-03-29T19:15:06.749Z,44.57
2023-03-29T19:17:34.209Z,58.67
2023-03-29T19:20:01.664Z,48.10
2023-03-29T19:22:29.379Z,54.30
2023-03-29T19:24:56.630Z,67.97
2023-03-29T19:27:23.706Z,52.73
2023-03-29T19:29:51.462Z,58.20
2023-03-29T19:32:18.842Z,63.37
2023-03-29T19:34:47.058Z,54.90
2023-03-29T19:37:14.755Z,106.77
2023-03-29T19:39:42.115Z,43.23
2023-03-29T19:42:09.436Z,48.83
2023-03-29T19:44:38.673Z,35.60
2023-03-29T19:47:07.123Z,31.03
2023-03-29T19:49:37.448Z,53.57
2023-03-29T19:52:05.186Z,33.73
2023-03-29T19:54:33.435Z,43.17
2023-03-29T19:57:02.419Z,71.20
2023-03-29T19:59:29.574Z,84.63
2023-03-29T20:01:57.926Z,111.27
2023-03-29T20:04:25.160Z,64.53
2023-03-29T20:06:52.791Z,115.97
2023-03-29T20:09:20.763Z,115.37
2023-03-29T20:11:52.421Z,175.93
2023-03-29T20:16:47.230Z,187.10
2023-03-29T20:19:14.796Z,161.50
2023-03-29T20:21:42.001Z,71.00
2023-03-29T20:24:09.519Z,155.55
2023-03-29T20:26:37.060Z,69.53
2023-03-29T20:29:04.350Z,86.78
2023-03-29T20:31:32.033Z,143.07
2023-03-29T20:33:59.347Z,77.20
2023-03-29T20:36:27.401Z,128.77
2023-03-29T20:38:56.817Z,118.85
2023-03-29T20:41:25.503Z,293.10
2023-03-29T20:44:00.044Z,104.23
2023-03-29T20:46:34.564Z,466.33
2023-03-29T20:49:03.056Z,172.67
2023-03-29T20:51:33.405Z,94.82
2023-03-29T20:54:05.362Z,189.50
2023-03-29T20:56:33.773Z,83.03
2023-03-29T20:59:01.948Z,70.57
2023-03-29T21:01:30.886Z,51.05
2023-03-29T21:03:58.111Z,38.80
2023-03-29T21:06:25.450Z,205.45
2023-03-29T21:08:53.575Z,34.42
2023-03-29T21:11:21.722Z,109.33
2023-03-29T21:13:49.890Z,67.10
2023-03-29T21:16:17.326Z,51.37
2023-03-29T21:18:45.412Z,63.27
2023-03-29T21:21:12.807Z,69.13
2023-03-29T21:23:41.308Z,40.60
2023-03-29T21:26:10.355Z,44.45
2023-03-29T21:28:38.634Z,24.77
2023-03-29T21:31:06.762Z,137.07
2023-03-29T21:33:34.715Z,451.33
2023-03-29T21:36:03.200Z,45.28
2023-03-29T21:38:31.428Z,107.72
2023-03-29T21:40:59.438Z,37.40
2023-03-29T21:43:27.292Z,102.07
2023-03-29T21:45:55.189Z,32.00
2023-03-29T21:48:22.928Z,39.87
2023-03-29T21:50:51.234Z,47.73
2023-03-29T21:53:19.385Z,36.30
2023-03-29T21:55:49.714Z,20.50
2023-03-29T21:58:17.885Z,28.10
2023-03-29T22:00:47.150Z,29.42
2023-03-29T22:03:15.980Z,30.43
2023-03-29T22:05:46.210Z,120.43
2023-03-29T22:08:13.319Z,35.60
2023-03-29T22:10:44.418Z,47.83
2023-03-29T22:13:12.119Z,63.72
2023-03-29T22:15:39.799Z,43.23
2023-03-29T22:18:08.930Z,39.72
2023-03-29T22:20:36.241Z,39.80
2023-03-29T22:23:04.005Z,30.33
2023-03-29T22:25:31.876Z,28.95
2023-03-29T22:28:02.630Z,28.70
2023-03-29T22:30:30.033Z,28.48
2023-03-29T22:32:57.277Z,24.00
2023-03-29T22:35:24.346Z,24.63
2023-03-29T22:37:51.943Z,23.93
2023-03-29T22:40:19.286Z,106.80
2023-03-29T22:42:46.849Z,102.20
2023-03-29T22:45:14.536Z,55.57
2023-03-29T22:47:42.448Z,51.03
2023-03-29T22:50:10.139Z,120.45
2023-03-29T22:52:40.577Z,41.00
2023-03-29T22:55:08.315Z,61.27
2023-03-29T22:57:36.036Z,36.35
2023-03-29T23:00:04.393Z,130.48
2023-03-29T23:02:32.081Z,106.40
2023-03-29T23:04:59.976Z,175.63
2023-03-29T23:07:28.758Z,133.52
2023-03-29T23:09:57.082Z,116.10
2023-03-29T23:12:29.629Z,376.10
2023-03-29T23:15:00.184Z,233.93
2023-03-29T23:17:27.722Z,324.70
2023-03-29T23:19:55.314Z,129.65
2023-03-29T23:22:23.515Z,143.97
2023-03-29T23:24:50.742Z,91.97
2023-03-29T23:27:19.284Z,75.17
2023-03-29T23:29:46.872Z,33.10
2023-03-29T23:32:17.645Z,61.80
2023-03-29T23:34:45.133Z,117.27
2023-03-29T23:37:12.825Z,35.40
2023-03-29T23:39:40.146Z,83.70
2023-03-29T23:42:08.059Z,96.03
2023-03-29T23:44:35.594Z,125.70
2023-03-29T23:47:03.046Z,53.33
2023-03-29T23:49:30.929Z,31.67
2023-03-29T23:52:00.833Z,48.47
2023-03-29T23:54:29.734Z,109.27
2023-03-29T23:56:57.115Z,46.50
2023-03-29T23:59:30.449Z,86.03
